Tavares, Florida
Current Conditions -  °F | °C
As of 5:53 AM on Wednesday 22 Oct 2014 (Local Time) from KLEE Reporting Station
Clear Clear  
Wind Chill: 66°   Ceiling: Unl
Heat Index: 66°   Visibility: 10mi
Dew Point: 63°   Wind: 6mph
Humidity: 90%   Direction: 360°N
Pressure: 29.96"   Gusts: NA
Location:  28.8°N, 81.73°W
Report Text: KLEE 220953Z AUTO 36005KT 10SM CLR 19/17 A2996 RMK AO2 SLP145 T01890172
Loading
Personal Weather Stations






























Interactive Weather Map
Tropical Storm Tracking
New forecast layout! Learn more

10-Day Weather Forecast

Advertisements
Track Severe Weather on mobile